Sinegorsk — YJRC5 — position and weather

sailwx.info

Track history (hours):
 
Tides and Currents Weather Stations Pressure Air Temp Water Temp Dewpoint Dewpoint Depression Visibility Wind Speed Wind Dir Waves Ship Positions

Sinegorsk

Last reported at 2014-Dec-07 07:23 UTC. Time now 2014-Dec-19 17:31 UTC.
Position N 55°40' E 015°33'.
Warning: this ship's position is 12 days out of date.

Length 133 m; draft 5.3 m.

Type: Cargo ship. MMSI: 576292000.

Date/timePositionNaut miles runAvg speedWind from/ knotsBaromVisibWave heightAir tempDewpointWater temp
2014-Dec-07 07:23N 55°40' E 015°33'911.5
2014-Dec-07 06:34N 55°36' E 015°18'1211.7
2014-Dec-07 05:34N 55°30' E 015°00'1211.7
2014-Dec-07 04:34N 55°25' E 014°42'1211.6
2014-Dec-07 03:34N 55°16' E 014°28'1110.6
2014-Dec-07 02:33N 55°10' E 014°12'1211.8
2014-Dec-07 01:33N 55°10' E 013°52'1211.7
2014-Dec-07 00:34N 55°10' E 013°31'1211.7
2014-Dec-06 23:33N 55°13' E 013°11'1211.7
2014-Dec-06 22:33N 55°15' E 012°51'9 9.5
2014-Dec-06 21:34N 55°21' E 012°39'1110.9
2014-Dec-06 20:33N 55°32' E 012°42'1212.2
2014-Dec-06 19:33N 55°44' E 012°41'1111.1
2014-Dec-06 18:33N 55°55' E 012°37'1111.0
2014-Dec-06 17:33N 56°06' E 012°33'1212.4
2014-Dec-06 16:33N 56°13' E 012°15'1111.4
2014-Dec-06 15:33N 56°21' E 012°01'1212.2
2014-Dec-06 14:33N 56°33' E 011°57'1212.1
2014-Dec-06 13:33N 56°45' E 011°52'1212.0
2014-Dec-06 12:31N 56°57' E 011°44'1111.8
2014-Dec-06 11:33N 57°08' E 011°37'1212.4
2014-Dec-06 10:33N 57°19' E 011°30'1212.1
2014-Dec-06 09:33N 57°30' E 011°19'1111.2
2014-Dec-06 08:33N 57°38' E 011°04'1211.7
2014-Dec-06 07:33N 57°45' E 010°47'1110.8
2014-Dec-06 06:33N 57°46' E 010°27'7612.2
2014-Dec-06 00:18N 57°10' E 008°23'2111.9
2014-Dec-05 22:32N 56°57' E 007°52'1111.0
2014-Dec-05 21:33N 56°49' E 007°39'17111.8
2014-Dec-05 07:05N 54°21' E 005°10'712.2
2014-Dec-05 06:33N 54°15' E 005°05'1212.0
2014-Dec-05 05:33N 54°04' E 004°55'1311.9
2014-Dec-05 04:26N 53°51' E 004°53'1112.1
2014-Dec-05 03:33N 53°41' E 004°51'1312.6
2014-Dec-05 02:33N 53°28' E 004°45'1312.8
2014-Dec-05 01:31N 53°16' E 004°36'1212.4
2014-Dec-05 00:33N 53°06' E 004°27'1211.8
2014-Dec-04 23:33N 52°55' E 004°18'1111.2
2014-Dec-04 22:33N 52°46' E 004°08'1111.0
2014-Dec-04 21:33N 52°38' E 003°55'1110.8
2014-Dec-04 20:33N 52°30' E 003°43'6610.9
2014-Dec-04 14:31N 51°42' E 002°31'1212.6
2014-Dec-04 13:34N 51°32' E 002°18'1312.5
2014-Dec-04 12:33N 51°21' E 002°09'1312.7
2014-Dec-04 11:33N 51°11' E 001°57'1413.7
2014-Dec-04 10:33N 51°02' E 001°40'1413.6
2014-Dec-04 09:33N 50°52' E 001°27'2512.0
2014-Dec-04 07:30N 50°32' E 001°03'1212.3
2014-Dec-04 06:33N 50°28' E 000°46'1512.2
2014-Dec-04 05:19N 50°24' E 000°23'119 9.3
2014-Dec-03 16:33N 50°11' W 002°42'1110.6
2014-Dec-03 15:34N 50°10' W 002°59'10 9.8
2014-Dec-03 14:34N 50°08' W 003°14'10 9.6
2014-Dec-03 13:33N 50°07' W 003°28'137 6.5
2014-Dec-02 16:31N 51°48' W 005°55'1010.2
2014-Dec-02 15:33N 51°57' W 005°49'1010.2
2014-Dec-02 14:33N 52°06' W 005°43'1111.0
2014-Dec-02 13:34N 52°17' W 005°37'98 9.7
2014-Dec-02 03:31N 53°34' W 003°57'8 8.5
2014-Dec-02 02:33N 53°34' W 003°43'18 8.8
2014-Dec-02 00:34N 53°31' W 003°14'9 9.3
2014-Dec-01 23:33N 53°26' W 003°01'0 0.4
2014-Dec-01 22:34N 53°27' W 003°01'0 0.1
2014-Dec-01 21:34N 53°27' W 003°01'0 0.0
2014-Dec-01 20:28N 53°27' W 003°01'0 0.0
2014-Dec-01 19:29N 53°27' W 003°01'0 0.0
2014-Dec-01 18:24N 53°27' W 003°01'0 0.0
2014-Dec-01 17:30N 53°27' W 003°01'0 0.0
2014-Dec-01 16:31N 53°27' W 003°01'0 0.0
2014-Dec-01 15:26N 53°27' W 003°01'0 0.0
2014-Dec-01 14:26N 53°27' W 003°01'0 0.0
2014-Dec-01 13:33N 53°27' W 003°01'0 0.0
2014-Dec-01 12:28N 53°27' W 003°01'0 0.0
2014-Dec-01 11:28N 53°27' W 003°01'0 0.0
2014-Dec-01 10:29N 53°27' W 003°01'0 0.0
2014-Dec-01 09:30N 53°27' W 003°01'0 0.0
2014-Dec-01 08:24N 53°27' W 003°01'0 0.0
2014-Dec-01 07:31N 53°27' W 003°01'0 0.0
2014-Dec-01 06:32N 53°27' W 003°01'0 0.0
2014-Dec-01 05:26N 53°27' W 003°01'0 0.0
2014-Dec-01 04:33N 53°27' W 003°01'0 0.0
2014-Dec-01 03:28N 53°27' W 003°01'0 0.0
2014-Dec-01 02:28N 53°27' W 003°01'0 0.0
2014-Dec-01 01:29N 53°27' W 003°01'0 0.0
2014-Dec-01 00:30N 53°27' W 003°01'0 0.0
2014-Nov-30 23:30N 53°27' W 003°01'0 0.0
2014-Nov-30 22:31N 53°27' W 003°01'0 0.0
2014-Nov-30 21:26N 53°27' W 003°01'0 0.0
2014-Nov-30 20:32N 53°27' W 003°01'0 0.0
2014-Nov-30 19:33N 53°27' W 003°01'0 0.0
2014-Nov-30 18:28N 53°27' W 003°01'0 0.0
2014-Nov-30 17:28N 53°27' W 003°01'0 0.0
2014-Nov-30 16:29N 53°27' W 003°01'0 0.0
2014-Nov-30 15:30N 53°27' W 003°01'0 0.0
2014-Nov-30 14:30N 53°27' W 003°01'0 0.0
2014-Nov-30 13:31N 53°27' W 003°01'0 0.0
2014-Nov-30 12:32N 53°27' W 003°01'0 0.0
2014-Nov-30 11:32N 53°27' W 003°01'0 0.0
2014-Nov-30 10:33N 53°27' W 003°01'0 0.0
2014-Nov-30 09:28N 53°27' W 003°01'0 0.0
2014-Nov-30 08:28N 53°27' W 003°01'0 0.0
2014-Nov-30 07:29N 53°27' W 003°01'0 0.0
2014-Nov-30 06:31N 53°27' W 003°01'0 0.0
2014-Nov-30 05:31N 53°27' W 003°01'0 0.0
2014-Nov-30 04:32N 53°27' W 003°01'0 0.0
2014-Nov-30 03:33N 53°27' W 003°01'0 0.0
2014-Nov-30 02:33N 53°27' W 003°01'0 0.0
2014-Nov-30 01:28N 53°27' W 003°01'0 0.0
2014-Nov-30 00:29N 53°27' W 003°01'0 0.0
2014-Nov-29 23:29N 53°27' W 003°01'0 0.0
2014-Nov-29 22:24N 53°27' W 003°01'0 0.0
2014-Nov-29 21:31N 53°27' W 003°01'0 0.0
2014-Nov-29 20:31N 53°27' W 003°01'0 0.0
2014-Nov-29 19:32N 53°27' W 003°01'0 0.0
2014-Nov-29 18:33N 53°27' W 003°01'0 0.0
2014-Nov-29 17:33N 53°27' W 003°01'0 0.0
2014-Nov-29 16:28N 53°27' W 003°01'0 0.0
2014-Nov-29 15:29N 53°27' W 003°01'0 0.0
2014-Nov-29 14:29N 53°27' W 003°01'0 0.0
2014-Nov-29 13:30N 53°27' W 003°01'0 0.0
2014-Nov-29 12:28N 53°27' W 003°01'0 0.0
2014-Nov-29 11:22N 53°27' W 003°01'0 0.0
2014-Nov-29 10:23N 53°27' W 003°01'0 0.0
2014-Nov-29 09:24N 53°27' W 003°01'0 0.0
2014-Nov-29 08:30N 53°27' W 003°01'0 0.0
2014-Nov-29 07:31N 53°27' W 003°01'0 0.0
2014-Nov-29 06:32N 53°27' W 003°01'0 0.0
2014-Nov-29 05:32N 53°27' W 003°01'0 0.0
2014-Nov-29 04:33N 53°27' W 003°01'0 0.0
2014-Nov-29 03:28N 53°27' W 003°01'0 0.0
2014-Nov-29 02:28N 53°27' W 003°01'0 0.0
2014-Nov-29 01:29N 53°27' W 003°01'0 0.0
2014-Nov-29 00:30N 53°27' W 003°01'0 0.0
2014-Nov-28 23:30N 53°27' W 003°01'0 0.0
2014-Nov-28 22:31N 53°27' W 003°01'0 0.0
2014-Nov-28 21:32N 53°27' W 003°01'0 0.0
2014-Nov-28 20:32N 53°27' W 003°01'0 0.0
2014-Nov-28 19:27N 53°27' W 003°01'0 0.0
2014-Nov-28 18:28N 53°27' W 003°01'0 0.0
2014-Nov-28 17:28N 53°27' W 003°01'0 0.0
2014-Nov-28 16:29N 53°27' W 003°01'0 0.0
2014-Nov-28 15:30N 53°27' W 003°01'0 0.0
2014-Nov-28 14:30N 53°27' W 003°01'0 0.0
2014-Nov-28 13:31N 53°27' W 003°01'0 0.0
2014-Nov-28 12:32N 53°27' W 003°01'0 0.0
2014-Nov-28 11:32N 53°27' W 003°01'0 0.0
2014-Nov-28 10:27N 53°27' W 003°01'0 0.0
2014-Nov-28 09:28N 53°27' W 003°01'0 0.0
2014-Nov-28 08:28N 53°27' W 003°01'0 0.0
2014-Nov-28 07:29N 53°27' W 003°01'0 0.0
2014-Nov-28 06:30N 53°27' W 003°01'0 0.0
2014-Nov-28 05:30N 53°27' W 003°01'0 0.0
2014-Nov-28 04:31N 53°27' W 003°01'0 0.0
2014-Nov-28 03:26N 53°27' W 003°01'0 0.0
2014-Nov-28 02:32N 53°27' W 003°01'0 0.0
2014-Nov-28 01:33N 53°27' W 003°01'0 0.0
2014-Nov-28 00:28N 53°27' W 003°01'0 0.0
2014-Nov-27 23:23N 53°27' W 003°01'0 0.0
2014-Nov-27 22:29N 53°27' W 003°01'0 0.0
2014-Nov-27 21:30N 53°27' W 003°01'0 0.0
2014-Nov-27 20:31N 53°27' W 003°01'0 0.0
2014-Nov-27 19:31N 53°27' W 003°01'0 0.0
2014-Nov-27 18:32N 53°27' W 003°01'0 0.0
2014-Nov-27 17:21N 53°27' W 003°01'0 0.0
2014-Nov-27 16:33N 53°27' W 003°01'0 0.0
2014-Nov-27 15:28N 53°27' W 003°01'0 0.0
2014-Nov-27 14:29N 53°27' W 003°01'0 0.0
2014-Nov-27 13:29N 53°27' W 003°01'0 0.0
2014-Nov-27 12:30N 53°27' W 003°01'0 0.0
2014-Nov-27 11:31N 53°27' W 003°01'0 0.0
2014-Nov-27 10:25N 53°27' W 003°01'0 0.0
2014-Nov-27 09:32N 53°27' W 003°01'0 0.0
2014-Nov-27 08:33N 53°27' W 003°01'0 0.0
2014-Nov-27 07:33N 53°27' W 003°01'  
Track history (hours):
 
Tides and Currents Weather Stations Pressure Air Temp Water Temp Dewpoint Dewpoint Depression Visibility Wind Speed Wind Dir Waves Ship Positions

Sinegorsk

Last reported at 2014-Dec-07 07:23 UTC. Time now 2014-Dec-19 17:31 UTC.
Position N 55°40' E 015°33'.
Warning: this ship's position is 12 days out of date.

Length 133 m; draft 5.3 m.

Type: Cargo ship. MMSI: 576292000.

Date/timePositionNaut miles runAvg speedWind from/ knotsBaromVisibWave heightAir tempDewpointWater temp
2014-Dec-07 07:23N 55°40' E 015°33'911.5
2014-Dec-07 06:34N 55°36' E 015°18'1211.7
2014-Dec-07 05:34N 55°30' E 015°00'1211.7
2014-Dec-07 04:34N 55°25' E 014°42'1211.6
2014-Dec-07 03:34N 55°16' E 014°28'1110.6
2014-Dec-07 02:33N 55°10' E 014°12'1211.8
2014-Dec-07 01:33N 55°10' E 013°52'1211.7
2014-Dec-07 00:34N 55°10' E 013°31'1211.7
2014-Dec-06 23:33N 55°13' E 013°11'1211.7
2014-Dec-06 22:33N 55°15' E 012°51'9 9.5
2014-Dec-06 21:34N 55°21' E 012°39'1110.9
2014-Dec-06 20:33N 55°32' E 012°42'1212.2
2014-Dec-06 19:33N 55°44' E 012°41'1111.1
2014-Dec-06 18:33N 55°55' E 012°37'1111.0
2014-Dec-06 17:33N 56°06' E 012°33'1212.4
2014-Dec-06 16:33N 56°13' E 012°15'1111.4
2014-Dec-06 15:33N 56°21' E 012°01'1212.2
2014-Dec-06 14:33N 56°33' E 011°57'1212.1
2014-Dec-06 13:33N 56°45' E 011°52'1212.0
2014-Dec-06 12:31N 56°57' E 011°44'1111.8
2014-Dec-06 11:33N 57°08' E 011°37'1212.4
2014-Dec-06 10:33N 57°19' E 011°30'1212.1
2014-Dec-06 09:33N 57°30' E 011°19'1111.2
2014-Dec-06 08:33N 57°38' E 011°04'1211.7
2014-Dec-06 07:33N 57°45' E 010°47'1110.8
2014-Dec-06 06:33N 57°46' E 010°27'7612.2
2014-Dec-06 00:18N 57°10' E 008°23'2111.9
2014-Dec-05 22:32N 56°57' E 007°52'1111.0
2014-Dec-05 21:33N 56°49' E 007°39'17111.8
2014-Dec-05 07:05N 54°21' E 005°10'712.2
2014-Dec-05 06:33N 54°15' E 005°05'1212.0
2014-Dec-05 05:33N 54°04' E 004°55'1311.9
2014-Dec-05 04:26N 53°51' E 004°53'1112.1
2014-Dec-05 03:33N 53°41' E 004°51'1312.6
2014-Dec-05 02:33N 53°28' E 004°45'1312.8
2014-Dec-05 01:31N 53°16' E 004°36'1212.4
2014-Dec-05 00:33N 53°06' E 004°27'1211.8
2014-Dec-04 23:33N 52°55' E 004°18'1111.2
2014-Dec-04 22:33N 52°46' E 004°08'1111.0
2014-Dec-04 21:33N 52°38' E 003°55'1110.8
2014-Dec-04 20:33N 52°30' E 003°43'6610.9
2014-Dec-04 14:31N 51°42' E 002°31'1212.6
2014-Dec-04 13:34N 51°32' E 002°18'1312.5
2014-Dec-04 12:33N 51°21' E 002°09'1312.7
2014-Dec-04 11:33N 51°11' E 001°57'1413.7
2014-Dec-04 10:33N 51°02' E 001°40'1413.6
2014-Dec-04 09:33N 50°52' E 001°27'2512.0
2014-Dec-04 07:30N 50°32' E 001°03'1212.3
2014-Dec-04 06:33N 50°28' E 000°46'1512.2
2014-Dec-04 05:19N 50°24' E 000°23'119 9.3
2014-Dec-03 16:33N 50°11' W 002°42'1110.6
2014-Dec-03 15:34N 50°10' W 002°59'10 9.8
2014-Dec-03 14:34N 50°08' W 003°14'10 9.6
2014-Dec-03 13:33N 50°07' W 003°28'137 6.5
2014-Dec-02 16:31N 51°48' W 005°55'1010.2
2014-Dec-02 15:33N 51°57' W 005°49'1010.2
2014-Dec-02 14:33N 52°06' W 005°43'1111.0
2014-Dec-02 13:34N 52°17' W 005°37'98 9.7
2014-Dec-02 03:31N 53°34' W 003°57'8 8.5
2014-Dec-02 02:33N 53°34' W 003°43'18 8.8
2014-Dec-02 00:34N 53°31' W 003°14'9 9.3
2014-Dec-01 23:33N 53°26' W 003°01'0 0.4
2014-Dec-01 22:34N 53°27' W 003°01'0 0.1
2014-Dec-01 21:34N 53°27' W 003°01'0 0.0
2014-Dec-01 20:28N 53°27' W 003°01'0 0.0
2014-Dec-01 19:29N 53°27' W 003°01'0 0.0
2014-Dec-01 18:24N 53°27' W 003°01'0 0.0
2014-Dec-01 17:30N 53°27' W 003°01'0 0.0
2014-Dec-01 16:31N 53°27' W 003°01'0 0.0
2014-Dec-01 15:26N 53°27' W 003°01'0 0.0
2014-Dec-01 14:26N 53°27' W 003°01'0 0.0
2014-Dec-01 13:33N 53°27' W 003°01'0 0.0
2014-Dec-01 12:28N 53°27' W 003°01'0 0.0
2014-Dec-01 11:28N 53°27' W 003°01'0 0.0
2014-Dec-01 10:29N 53°27' W 003°01'0 0.0
2014-Dec-01 09:30N 53°27' W 003°01'0 0.0
2014-Dec-01 08:24N 53°27' W 003°01'0 0.0
2014-Dec-01 07:31N 53°27' W 003°01'0 0.0
2014-Dec-01 06:32N 53°27' W 003°01'0 0.0
2014-Dec-01 05:26N 53°27' W 003°01'0 0.0
2014-Dec-01 04:33N 53°27' W 003°01'0 0.0
2014-Dec-01 03:28N 53°27' W 003°01'0 0.0
2014-Dec-01 02:28N 53°27' W 003°01'0 0.0
2014-Dec-01 01:29N 53°27' W 003°01'0 0.0
2014-Dec-01 00:30N 53°27' W 003°01'0 0.0
2014-Nov-30 23:30N 53°27' W 003°01'0 0.0
2014-Nov-30 22:31N 53°27' W 003°01'0 0.0
2014-Nov-30 21:26N 53°27' W 003°01'0 0.0
2014-Nov-30 20:32N 53°27' W 003°01'0 0.0
2014-Nov-30 19:33N 53°27' W 003°01'0 0.0
2014-Nov-30 18:28N 53°27' W 003°01'0 0.0
2014-Nov-30 17:28N 53°27' W 003°01'0 0.0
2014-Nov-30 16:29N 53°27' W 003°01'0 0.0
2014-Nov-30 15:30N 53°27' W 003°01'0 0.0
2014-Nov-30 14:30N 53°27' W 003°01'0 0.0
2014-Nov-30 13:31N 53°27' W 003°01'0 0.0
2014-Nov-30 12:32N 53°27' W 003°01'0 0.0
2014-Nov-30 11:32N 53°27' W 003°01'0 0.0
2014-Nov-30 10:33N 53°27' W 003°01'0 0.0
2014-Nov-30 09:28N 53°27' W 003°01'0 0.0
2014-Nov-30 08:28N 53°27' W 003°01'0 0.0
2014-Nov-30 07:29N 53°27' W 003°01'0 0.0
2014-Nov-30 06:31N 53°27' W 003°01'0 0.0
2014-Nov-30 05:31N 53°27' W 003°01'0 0.0
2014-Nov-30 04:32N 53°27' W 003°01'0 0.0
2014-Nov-30 03:33N 53°27' W 003°01'0 0.0
2014-Nov-30 02:33N 53°27' W 003°01'0 0.0
2014-Nov-30 01:28N 53°27' W 003°01'0 0.0
2014-Nov-30 00:29N 53°27' W 003°01'0 0.0
2014-Nov-29 23:29N 53°27' W 003°01'0 0.0
2014-Nov-29 22:24N 53°27' W 003°01'0 0.0
2014-Nov-29 21:31N 53°27' W 003°01'0 0.0
2014-Nov-29 20:31N 53°27' W 003°01'0 0.0
2014-Nov-29 19:32N 53°27' W 003°01'0 0.0
2014-Nov-29 18:33N 53°27' W 003°01'0 0.0
2014-Nov-29 17:33N 53°27' W 003°01'0 0.0
2014-Nov-29 16:28N 53°27' W 003°01'0 0.0
2014-Nov-29 15:29N 53°27' W 003°01'0 0.0
2014-Nov-29 14:29N 53°27' W 003°01'0 0.0
2014-Nov-29 13:30N 53°27' W 003°01'0 0.0
2014-Nov-29 12:28N 53°27' W 003°01'0 0.0
2014-Nov-29 11:22N 53°27' W 003°01'0 0.0
2014-Nov-29 10:23N 53°27' W 003°01'0 0.0
2014-Nov-29 09:24N 53°27' W 003°01'0 0.0
2014-Nov-29 08:30N 53°27' W 003°01'0 0.0
2014-Nov-29 07:31N 53°27' W 003°01'0 0.0
2014-Nov-29 06:32N 53°27' W 003°01'0 0.0
2014-Nov-29 05:32N 53°27' W 003°01'0 0.0
2014-Nov-29 04:33N 53°27' W 003°01'0 0.0
2014-Nov-29 03:28N 53°27' W 003°01'0 0.0
2014-Nov-29 02:28N 53°27' W 003°01'0 0.0
2014-Nov-29 01:29N 53°27' W 003°01'0 0.0
2014-Nov-29 00:30N 53°27' W 003°01'0 0.0
2014-Nov-28 23:30N 53°27' W 003°01'0 0.0
2014-Nov-28 22:31N 53°27' W 003°01'0 0.0
2014-Nov-28 21:32N 53°27' W 003°01'0 0.0
2014-Nov-28 20:32N 53°27' W 003°01'0 0.0
2014-Nov-28 19:27N 53°27' W 003°01'0 0.0
2014-Nov-28 18:28N 53°27' W 003°01'0 0.0
2014-Nov-28 17:28N 53°27' W 003°01'0 0.0
2014-Nov-28 16:29N 53°27' W 003°01'0 0.0
2014-Nov-28 15:30N 53°27' W 003°01'0 0.0
2014-Nov-28 14:30N 53°27' W 003°01'0 0.0
2014-Nov-28 13:31N 53°27' W 003°01'0 0.0
2014-Nov-28 12:32N 53°27' W 003°01'0 0.0
2014-Nov-28 11:32N 53°27' W 003°01'0 0.0
2014-Nov-28 10:27N 53°27' W 003°01'0 0.0
2014-Nov-28 09:28N 53°27' W 003°01'0 0.0
2014-Nov-28 08:28N 53°27' W 003°01'0 0.0
2014-Nov-28 07:29N 53°27' W 003°01'0 0.0
2014-Nov-28 06:30N 53°27' W 003°01'0 0.0
2014-Nov-28 05:30N 53°27' W 003°01'0 0.0
2014-Nov-28 04:31N 53°27' W 003°01'0 0.0
2014-Nov-28 03:26N 53°27' W 003°01'0 0.0
2014-Nov-28 02:32N 53°27' W 003°01'0 0.0
2014-Nov-28 01:33N 53°27' W 003°01'0 0.0
2014-Nov-28 00:28N 53°27' W 003°01'0 0.0
2014-Nov-27 23:23N 53°27' W 003°01'0 0.0
2014-Nov-27 22:29N 53°27' W 003°01'0 0.0
2014-Nov-27 21:30N 53°27' W 003°01'0 0.0
2014-Nov-27 20:31N 53°27' W 003°01'0 0.0
2014-Nov-27 19:31N 53°27' W 003°01'0 0.0
2014-Nov-27 18:32N 53°27' W 003°01'0 0.0
2014-Nov-27 17:21N 53°27' W 003°01'0 0.0
2014-Nov-27 16:33N 53°27' W 003°01'0 0.0
2014-Nov-27 15:28N 53°27' W 003°01'0 0.0
2014-Nov-27 14:29N 53°27' W 003°01'0 0.0
2014-Nov-27 13:29N 53°27' W 003°01'0 0.0
2014-Nov-27 12:30N 53°27' W 003°01'0 0.0
2014-Nov-27 11:31N 53°27' W 003°01'0 0.0
2014-Nov-27 10:25N 53°27' W 003°01'0 0.0
2014-Nov-27 09:32N 53°27' W 003°01'0 0.0
2014-Nov-27 08:33N 53°27' W 003°01'0 0.0
2014-Nov-27 07:33N 53°27' W 003°01'  

Dump ship's entire track history